Time;durP1;ratioP1;P1;durP2;ratioP2;P2;SDS_P1;SDS_P2;PMS_P1;PMS_P2;Temp;Humidity;BMP_temperature;BMP_pressure;BME280_temperature;BME280_humidity;BME280_pressure;Samples;Min_cycle;Max_cycle;Signal;HPM_P1;HPM_P2
2022/07/18 00:01:54;;;;;;;1.67;1.40;;;16.10;99.90;;;;;;4972414;28;20285;-73
2022/07/18 00:04:20;;;;;;;1.67;1.57;;;16.00;99.90;;;;;;4973031;28;20422;-73
2022/07/18 00:06:45;;;;;;;2.43;1.30;;;16.00;99.90;;;;;;4972680;28;20908;-73
2022/07/18 00:09:11;;;;;;;4.73;1.50;;;15.90;99.90;;;;;;4972945;28;20215;-74
2022/07/18 00:11:36;;;;;;;2.23;1.50;;;15.90;99.90;;;;;;4972244;28;20226;-73
2022/07/18 00:14:02;;;;;;;4.40;1.73;;;15.90;99.90;;;;;;4973024;28;20637;-73
2022/07/18 00:16:28;;;;;;;1.53;1.43;;;15.80;99.90;;;;;;4972384;28;20589;-72
2022/07/18 00:18:54;;;;;;;1.33;1.23;;;15.80;99.90;;;;;;4973586;28;20257;-73
2022/07/18 00:21:20;;;;;;;1.87;1.77;;;15.70;99.90;;;;;;4971660;28;20793;-73
2022/07/18 00:23:46;;;;;;;4.90;1.67;;;15.70;99.90;;;;;;4972856;28;20936;-73
2022/07/18 00:26:11;;;;;;;3.40;1.60;;;15.70;99.90;;;;;;4971770;28;20263;-72
2022/07/18 00:28:37;;;;;;;3.17;1.63;;;15.60;99.90;;;;;;4972929;28;20179;-72
2022/07/18 00:31:02;;;;;;;2.77;1.20;;;15.60;99.90;;;;;;4971797;28;20219;-72
2022/07/18 00:33:28;;;;;;;11.13;2.00;;;15.60;99.90;;;;;;4972486;28;20253;-71
2022/07/18 00:35:53;;;;;;;3.90;1.40;;;15.50;99.90;;;;;;4972262;28;20178;-73
2022/07/18 00:38:19;;;;;;;2.93;1.67;;;15.50;99.90;;;;;;4972436;28;20254;-74
2022/07/18 00:40:45;;;;;;;3.00;1.40;;;15.50;99.90;;;;;;4971738;28;20176;-73
2022/07/18 00:43:14;;;;;;;3.83;1.67;;;15.30;99.90;;;;;;4971905;28;20250;-73
2022/07/18 00:45:47;;;;;;;1.50;1.40;;;15.30;99.90;;;;;;4972453;28;20507;-73
2022/07/18 00:48:13;;;;;;;3.43;2.40;;;15.30;99.90;;;;;;4971836;28;20411;-73
2022/07/18 00:50:40;;;;;;;2.30;1.33;;;15.30;99.90;;;;;;4971277;28;20460;-72
2022/07/18 00:53:06;;;;;;;1.70;1.60;;;15.30;99.90;;;;;;4972384;28;20427;-70
2022/07/18 00:55:32;;;;;;;2.37;1.70;;;15.20;99.90;;;;;;4954954;28;20940;-72
2022/07/18 00:57:58;;;;;;;1.80;1.57;;;15.20;99.90;;;;;;4972042;28;20630;-72
2022/07/18 02:31:01;;;;;;;3.13;1.40;;;14.10;99.90;;;;;;5992029;23;20402;-70
2022/07/18 02:33:26;;;;;;;1.80;1.70;;;14.10;99.90;;;;;;4988439;28;20835;-72
2022/07/18 02:35:52;;;;;;;1.70;1.60;;;14.00;99.90;;;;;;4981220;28;20184;-74
2022/07/18 02:38:17;;;;;;;3.00;1.47;;;14.00;99.90;;;;;;4991253;28;20246;-74
2022/07/18 02:40:43;;;;;;;1.70;1.60;;;14.00;99.90;;;;;;4989913;28;20214;-74
2022/07/18 02:43:08;;;;;;;2.80;1.47;;;14.00;99.90;;;;;;4989799;28;20172;-73
2022/07/18 02:45:34;;;;;;;1.53;1.23;;;13.90;99.90;;;;;;4995551;28;20261;-75
2022/07/18 02:48:00;;;;;;;7.17;2.00;;;13.90;99.90;;;;;;5007345;28;20194;-73
2022/07/18 02:50:25;;;;;;;3.73;1.80;;;13.90;99.90;;;;;;5003466;28;20207;-74
2022/07/18 02:52:51;;;;;;;2.97;1.83;;;13.90;99.90;;;;;;4993415;28;20659;-74
2022/07/18 02:55:17;;;;;;;1.93;1.20;;;13.80;99.90;;;;;;4992883;28;20175;-75
2022/07/18 02:57:43;;;;;;;3.10;1.73;;;13.80;99.90;;;;;;4993842;28;20197;-74
2022/07/18 03:00:12;;;;;;;6.87;1.90;;;13.70;99.90;;;;;;4993435;28;20275;-74
2022/07/18 03:02:38;;;;;;;1.70;1.60;;;13.70;99.90;;;;;;4996953;28;20799;-74
2022/07/18 03:05:04;;;;;;;2.07;1.97;;;13.70;99.90;;;;;;5005164;28;20442;-74
2022/07/18 03:07:29;;;;;;;4.87;1.60;;;13.70;99.90;;;;;;4992839;28;20458;-74
2022/07/18 03:09:55;;;;;;;1.97;1.80;;;13.60;99.90;;;;;;4993788;28;20427;-74
2022/07/18 03:12:21;;;;;;;3.20;1.50;;;13.60;99.90;;;;;;4992064;28;20222;-74
2022/07/18 03:14:46;;;;;;;5.73;1.53;;;13.60;99.90;;;;;;4993265;28;20178;-72
2022/07/18 03:17:12;;;;;;;2.10;1.23;;;13.60;99.90;;;;;;4993068;28;20218;-74
2022/07/18 03:19:37;;;;;;;1.40;1.30;;;13.50;99.90;;;;;;4993077;28;20183;-74
2022/07/18 03:22:04;;;;;;;3.00;1.60;;;13.50;99.90;;;;;;4991932;28;20751;-74
2022/07/18 03:24:29;;;;;;;3.60;1.60;;;13.50;99.90;;;;;;4993075;28;20183;-74
2022/07/18 03:26:55;;;;;;;1.60;1.47;;;13.50;99.90;;;;;;4992946;28;20432;-75
2022/07/18 03:29:21;;;;;;;5.90;1.50;;;13.40;99.90;;;;;;5002715;28;20194;-74
2022/07/18 03:31:46;;;;;;;1.57;1.47;;;13.50;99.90;;;;;;4991842;28;20218;-72
2022/07/18 03:34:12;;;;;;;1.50;1.40;;;13.40;99.90;;;;;;4992714;28;20179;-74
2022/07/18 03:36:38;;;;;;;4.63;1.80;;;13.40;99.90;;;;;;4992938;28;20582;-74
2022/07/18 03:39:04;;;;;;;4.77;1.80;;;13.40;99.90;;;;;;4992212;28;20179;-75
2022/07/18 03:41:30;;;;;;;8.33;2.17;;;13.30;99.90;;;;;;4991636;28;20204;-74
2022/07/18 03:43:55;;;;;;;5.40;1.60;;;13.40;99.90;;;;;;4993273;28;20415;-74
2022/07/18 03:46:21;;;;;;;4.93;1.90;;;13.40;99.90;;;;;;4993267;28;20183;-74
2022/07/18 03:48:47;;;;;;;3.43;1.70;;;13.30;99.90;;;;;;4992791;28;20183;-72
2022/07/18 03:51:13;;;;;;;1.43;1.33;;;13.30;99.90;;;;;;4991170;28;20215;-76
2022/07/18 03:53:38;;;;;;;2.47;1.60;;;13.30;99.90;;;;;;4993014;28;20191;-74
2022/07/18 03:56:04;;;;;;;1.70;1.43;;;13.40;99.90;;;;;;4999540;28;20179;-75
2022/07/18 03:58:30;;;;;;;2.10;1.67;;;13.30;99.90;;;;;;5004090;28;20174;-74
2022/07/18 04:00:55;;;;;;;1.77;1.67;;;13.30;99.90;;;;;;5010857;28;20282;-74
2022/07/18 04:03:21;;;;;;;2.47;1.80;;;13.30;99.90;;;;;;5012123;28;20568;-70
2022/07/18 04:05:47;;;;;;;2.03;1.83;;;13.30;99.90;;;;;;5012315;28;20183;-69
2022/07/18 04:08:12;;;;;;;2.10;1.83;;;13.40;99.90;;;;;;5012070;28;20171;-71
2022/07/18 04:10:39;;;;;;;3.63;3.33;;;13.50;99.90;;;;;;5011365;28;20457;-72
2022/07/18 04:13:06;;;;;;;2.10;1.90;;;13.50;99.90;;;;;;5011231;28;20167;-74
2022/07/18 04:15:31;;;;;;;2.40;1.90;;;13.50;99.90;;;;;;5012212;28;20436;-70
2022/07/18 04:17:57;;;;;;;4.23;1.30;;;13.50;99.90;;;;;;5012099;28;20421;-71
2022/07/18 04:20:23;;;;;;;2.50;1.57;;;13.60;99.90;;;;;;5011313;28;20178;-71
2022/07/18 04:22:57;;;;;;;2.83;1.90;;;13.60;99.90;;;;;;5011355;28;20203;-70
2022/07/18 04:25:25;;;;;;;4.43;2.47;;;13.70;99.90;;;;;;5011555;28;20472;-71
2022/07/18 04:27:51;;;;;;;6.97;1.90;;;13.90;99.90;;;;;;5011462;28;20463;-72
2022/07/18 04:30:19;;;;;;;4.70;2.77;;;13.90;99.90;;;;;;5011480;28;20425;-72
2022/07/18 04:32:45;;;;;;;3.80;3.00;;;13.90;99.90;;;;;;5010961;28;20453;-72
2022/07/18 04:35:11;;;;;;;2.80;2.10;;;13.90;99.90;;;;;;5010807;28;20508;-71
2022/07/18 04:37:40;;;;;;;2.60;2.40;;;14.00;99.90;;;;;;5011811;28;20182;-71
2022/07/18 04:40:07;;;;;;;3.40;2.03;;;14.00;99.90;;;;;;4996012;28;20411;-71
2022/07/18 04:42:33;;;;;;;4.90;2.47;;;14.10;99.90;;;;;;4971967;28;20443;-72
2022/07/18 04:44:59;;;;;;;2.60;1.87;;;14.20;99.90;;;;;;4971940;28;20407;-72
2022/07/18 04:47:26;;;;;;;2.27;1.97;;;14.20;99.90;;;;;;4972507;28;20472;-71
2022/07/18 04:49:52;;;;;;;2.17;2.00;;;14.30;99.90;;;;;;4972529;28;20644;-72
2022/07/18 04:52:18;;;;;;;9.33;2.50;;;14.30;99.90;;;;;;4971490;28;20505;-71
2022/07/18 04:54:44;;;;;;;5.00;2.33;;;14.40;99.90;;;;;;4972338;28;20179;-72
2022/07/18 04:57:11;;;;;;;5.97;3.00;;;14.40;99.90;;;;;;4971655;28;20171;-71
2022/07/18 04:59:37;;;;;;;2.67;2.43;;;14.50;99.90;;;;;;4972364;28;20203;-72
2022/07/18 05:02:03;;;;;;;3.77;2.63;;;14.60;99.90;;;;;;4954050;28;20451;-72
2022/07/18 05:04:28;;;;;;;2.30;2.10;;;14.70;99.90;;;;;;4972872;28;20426;-72
2022/07/18 05:06:54;;;;;;;3.53;2.13;;;14.90;99.90;;;;;;4975421;28;20207;-73
2022/07/18 05:09:20;;;;;;;4.13;2.40;;;15.00;99.90;;;;;;4990306;28;20550;-72
2022/07/18 05:11:45;;;;;;;2.37;2.13;;;15.20;99.90;;;;;;4989883;28;20215;-72
2022/07/18 05:14:11;;;;;;;2.40;2.10;;;15.40;99.90;;;;;;4991342;28;20270;-72
2022/07/18 05:16:36;;;;;;;3.00;1.80;;;15.70;99.90;;;;;;4991123;28;20172;-73
2022/07/18 05:19:02;;;;;;;3.03;2.10;;;16.20;99.90;;;;;;4990592;28;20222;-72
2022/07/18 05:21:27;;;;;;;5.13;2.50;;;16.80;99.90;;;;;;4990190;28;20719;-71
2022/07/18 05:23:53;;;;;;;7.13;2.43;;;17.50;99.90;;;;;;4989840;28;20199;-72
2022/07/18 05:26:18;;;;;;;4.20;1.80;;;18.20;99.90;;;;;;4990710;28;20222;-72
2022/07/18 05:28:44;;;;;;;2.40;2.20;;;18.80;99.90;;;;;;4987174;28;20278;-69
2022/07/18 05:31:09;;;;;;;4.33;2.33;;;19.40;99.90;;;;;;4989212;28;20711;-72
2022/07/18 05:33:35;;;;;;;2.43;2.23;;;19.90;99.90;;;;;;4991331;28;20720;-72
2022/07/18 05:36:00;;;;;;;4.10;2.27;;;20.50;99.90;;;;;;4991091;28;20667;-72
2022/07/18 05:38:26;;;;;;;4.03;2.30;;;20.80;99.90;;;;;;4990242;28;20259;-73
2022/07/18 05:40:51;;;;;;;6.43;2.20;;;21.20;99.90;;;;;;4990664;28;20183;-72
2022/07/18 05:43:17;;;;;;;4.40;2.87;;;21.50;99.90;;;;;;4990571;28;20336;-72
2022/07/18 05:45:42;;;;;;;11.23;3.73;;;21.80;99.90;;;;;;4991003;28;20180;-72
2022/07/18 05:48:08;;;;;;;5.77;2.90;;;22.00;99.90;;;;;;4990737;28;20179;-71
2022/07/18 05:50:33;;;;;;;8.27;3.50;;;22.00;99.90;;;;;;4989976;28;20671;-71
2022/07/18 05:52:59;;;;;;;7.53;3.23;;;22.20;99.90;;;;;;4990416;28;20262;-73
2022/07/18 05:55:25;;;;;;;4.80;3.17;;;22.40;99.90;;;;;;4990924;28;20779;-73
2022/07/18 05:57:52;;;;;;;3.87;3.20;;;22.70;99.90;;;;;;4990861;28;20438;-73
2022/07/18 06:00:18;;;;;;;7.80;3.23;;;23.00;99.90;;;;;;4990673;28;20171;-73
2022/07/18 06:02:44;;;;;;;10.87;4.23;;;23.20;99.90;;;;;;4989425;28;20434;-72
2022/07/18 06:05:10;;;;;;;8.83;4.53;;;23.30;99.90;;;;;;4990499;28;20501;-73
2022/07/18 06:07:35;;;;;;;3.40;3.10;;;23.60;99.90;;;;;;4990969;28;20206;-73
2022/07/18 06:10:01;;;;;;;6.43;3.40;;;23.70;99.90;;;;;;4990551;28;20418;-72
2022/07/18 06:12:33;;;;;;;4.73;3.00;;;23.70;99.90;;;;;;4989493;28;20575;-70
2022/07/18 06:14:59;;;;;;;6.83;2.93;;;23.90;99.90;;;;;;4990828;28;20172;-72
2022/07/18 06:17:27;;;;;;;5.87;3.70;;;24.00;99.90;;;;;;4990434;28;20757;-73
2022/07/18 06:19:53;;;;;;;8.63;3.33;;;24.20;99.90;;;;;;4992896;28;20422;-72
2022/07/18 06:22:20;;;;;;;4.03;3.20;;;24.30;99.90;;;;;;4993313;28;20501;-73
2022/07/18 06:24:45;;;;;;;6.80;3.47;;;24.50;99.90;;;;;;4994629;28;20266;-72
2022/07/18 06:27:11;;;;;;;8.93;3.40;;;24.80;99.90;;;;;;4994237;28;20858;-72
2022/07/18 06:29:36;;;;;;;5.40;2.93;;;24.90;99.90;;;;;;4993972;28;20187;-73
2022/07/18 06:32:02;;;;;;;6.40;3.27;;;25.10;99.90;;;;;;4993198;28;20226;-72
2022/07/18 06:34:27;;;;;;;4.97;3.33;;;25.30;99.90;;;;;;4994405;28;20584;-73
2022/07/18 06:36:53;;;;;;;7.47;3.27;;;25.50;99.90;;;;;;4994348;28;20543;-72
2022/07/18 06:39:18;;;;;;;12.47;2.90;;;25.70;99.90;;;;;;4993969;28;20211;-73
2022/07/18 06:41:45;;;;;;;3.37;3.07;;;26.10;99.90;;;;;;4993424;28;20200;-74
2022/07/18 06:44:11;;;;;;;4.70;3.10;;;26.10;99.90;;;;;;4993724;28;20190;-73
2022/07/18 06:46:37;;;;;;;7.00;3.33;;;26.20;99.90;;;;;;4994391;28;20914;-73
2022/07/18 06:49:03;;;;;;;5.43;3.77;;;26.20;99.90;;;;;;4994143;28;20202;-72
2022/07/18 06:51:29;;;;;;;4.57;2.73;;;26.50;99.90;;;;;;4992753;28;20466;-73
2022/07/18 06:53:55;;;;;;;3.80;2.83;;;26.80;99.90;;;;;;4994154;28;21034;-73
2022/07/18 06:56:21;;;;;;;7.53;3.53;;;27.00;99.90;;;;;;4993109;28;20206;-73
2022/07/18 06:58:49;;;;;;;5.70;3.33;;;27.10;99.90;;;;;;4994024;28;20442;-72
2022/07/18 07:01:16;;;;;;;6.83;3.20;;;27.10;99.90;;;;;;4992687;28;20565;-73
2022/07/18 07:03:42;;;;;;;4.23;2.83;;;27.40;99.90;;;;;;4993733;28;20430;-74
2022/07/18 07:06:07;;;;;;;6.13;3.20;;;27.50;99.90;;;;;;4993191;28;20760;-73
2022/07/18 07:08:33;;;;;;;8.43;3.07;;;27.80;99.90;;;;;;4993711;28;20175;-73
2022/07/18 07:10:59;;;;;;;4.97;2.83;;;27.60;99.90;;;;;;4992356;28;20207;-73
2022/07/18 07:13:25;;;;;;;4.63;3.07;;;27.90;99.90;;;;;;4993571;28;20834;-73
2022/07/18 07:15:50;;;;;;;5.67;2.50;;;28.00;99.90;;;;;;4993688;28;20167;-74
2022/07/18 07:18:16;;;;;;;5.70;2.97;;;28.10;99.40;;;;;;4993539;28;20254;-73
2022/07/18 07:20:42;;;;;;;5.23;3.20;;;28.30;99.40;;;;;;4992665;28;20179;-73
2022/07/18 07:23:08;;;;;;;6.40;3.40;;;28.40;98.00;;;;;;4992398;28;20179;-71
2022/07/18 07:25:35;;;;;;;3.73;2.60;;;28.60;98.60;;;;;;4994016;28;20640;-73
2022/07/18 07:28:00;;;;;;;8.63;3.00;;;28.80;96.90;;;;;;4993250;28;20939;-74
2022/07/18 07:30:26;;;;;;;6.90;3.20;;;28.90;96.60;;;;;;4991180;28;20506;-74
2022/07/18 07:32:51;;;;;;;3.27;2.43;;;29.10;96.90;;;;;;4992828;28;20238;-74
2022/07/18 07:35:19;;;;;;;5.13;3.20;;;29.30;96.80;;;;;;4993155;28;20180;-74
2022/07/18 07:37:47;;;;;;;11.00;2.90;;;29.50;96.50;;;;;;4993491;28;20195;-73
2022/07/18 07:40:13;;;;;;;2.80;2.60;;;29.80;96.60;;;;;;4993225;28;20473;-74
2022/07/18 07:42:38;;;;;;;3.93;2.53;;;30.10;96.20;;;;;;4992232;28;20430;-74
2022/07/18 07:45:05;;;;;;;9.63;3.73;;;30.40;95.10;;;;;;4992625;28;20410;-74
2022/07/18 07:47:30;;;;;;;10.13;3.03;;;30.40;95.70;;;;;;4993228;28;20659;-74
2022/07/18 07:49:57;;;;;;;3.57;1.90;;;30.60;93.40;;;;;;4993265;28;20501;-75
2022/07/18 07:52:23;;;;;;;3.90;2.10;;;30.60;87.40;;;;;;4992009;28;20635;-74
2022/07/18 07:54:50;;;;;;;5.00;2.00;;;30.70;84.50;;;;;;4992700;28;20951;-74
2022/07/18 07:57:15;;;;;;;5.53;3.10;;;30.90;85.60;;;;;;4992646;28;20430;-74
2022/07/18 07:59:41;;;;;;;11.13;3.47;;;31.10;90.00;;;;;;4992873;28;20838;-74
2022/07/18 08:02:07;;;;;;;7.53;3.63;;;31.20;90.30;;;;;;4991744;28;20203;-72
2022/07/18 08:04:32;;;;;;;5.50;2.70;;;31.20;90.30;;;;;;4993707;28;20194;-74
2022/07/18 08:06:58;;;;;;;3.70;2.70;;;31.20;89.60;;;;;;4993448;28;20547;-73
2022/07/18 08:09:23;;;;;;;8.47;3.10;;;31.20;91.40;;;;;;4992341;28;20194;-75
2022/07/18 08:11:49;;;;;;;6.60;2.73;;;31.30;88.20;;;;;;4992631;28;20804;-73
2022/07/18 08:14:14;;;;;;;9.90;3.33;;;31.50;88.60;;;;;;4993554;28;20175;-74
2022/07/18 08:16:40;;;;;;;3.67;2.87;;;31.90;89.20;;;;;;4993269;28;20210;-74
2022/07/18 08:19:06;;;;;;;6.73;2.50;;;32.00;88.40;;;;;;4992399;28;20179;-73
2022/07/18 08:21:31;;;;;;;7.93;2.60;;;32.20;87.50;;;;;;4992000;28;20198;-74
2022/07/18 08:23:57;;;;;;;8.40;2.80;;;32.50;86.80;;;;;;4992837;28;20258;-73
2022/07/18 08:26:23;;;;;;;7.13;2.43;;;32.60;85.10;;;;;;4991940;28;20175;-74
2022/07/18 08:28:48;;;;;;;7.40;2.60;;;32.60;83.40;;;;;;4991965;28;20179;-72
2022/07/18 08:31:14;;;;;;;4.83;2.97;;;32.70;81.20;;;;;;4990790;28;20321;-73
2022/07/18 08:33:40;;;;;;;4.33;2.97;;;32.20;82.20;;;;;;4992515;28;20662;-74
2022/07/18 08:36:07;;;;;;;2.70;2.00;;;32.10;83.00;;;;;;4992159;28;20167;-74
2022/07/18 08:38:32;;;;;;;4.77;2.47;;;32.30;82.10;;;;;;4991914;28;20656;-74
2022/07/18 08:40:58;;;;;;;9.23;2.43;;;32.60;80.70;;;;;;4991311;28;20446;-71
2022/07/18 08:43:27;;;;;;;8.80;2.67;;;32.40;78.50;;;;;;4991800;28;20179;-71
2022/07/18 08:45:56;;;;;;;3.13;2.67;;;33.00;77.70;;;;;;4991872;28;20421;-73
2022/07/18 08:48:22;;;;;;;7.07;2.57;;;32.90;77.40;;;;;;4991777;28;20438;-73
2022/07/18 08:50:49;;;;;;;4.63;2.47;;;33.10;77.30;;;;;;4990482;28;20478;-73
2022/07/18 08:53:16;;;;;;;7.13;2.33;;;33.10;75.40;;;;;;4991306;28;20205;-73
2022/07/18 08:55:43;;;;;;;3.77;2.40;;;33.40;74.20;;;;;;4991320;28;20561;-72
2022/07/18 08:58:10;;;;;;;9.07;2.43;;;33.60;73.40;;;;;;4991004;28;20505;-70
2022/07/18 09:00:35;;;;;;;3.53;2.47;;;33.90;71.80;;;;;;4990977;28;20414;-72
2022/07/18 09:03:03;;;;;;;11.00;2.63;;;33.90;72.20;;;;;;4991423;28;20977;-74
2022/07/18 09:05:29;;;;;;;3.83;2.20;;;34.10;70.30;;;;;;4973575;28;20731;-73
2022/07/18 09:08:21;;;;;;;7.03;2.40;;;34.60;72.30;;;;;;4991565;28;20461;-73
2022/07/18 09:10:52;;;;;;;4.47;2.23;;;34.30;69.50;;;;;;4990828;28;21009;-71
2022/07/18 09:13:22;;;;;;;5.23;2.30;;;34.80;67.90;;;;;;4991641;28;20937;-74
2022/07/18 09:15:58;;;;;;;3.30;2.50;;;35.00;65.70;;;;;;4991280;28;20418;-73
2022/07/18 09:18:34;;;;;;;3.80;2.10;;;35.40;65.50;;;;;;4991372;28;20791;-72
2022/07/18 09:21:03;;;;;;;4.83;1.93;;;35.80;65.90;;;;;;4990702;28;20434;-73
2022/07/18 09:23:30;;;;;;;8.13;2.03;;;36.50;64.40;;;;;;4991481;28;20794;-72
2022/07/18 09:25:56;;;;;;;6.77;1.83;;;36.50;61.00;;;;;;4991557;28;20509;-72
2022/07/18 09:28:21;;;;;;;2.20;1.50;;;36.70;59.40;;;;;;4991221;28;20510;-73
2022/07/18 09:30:47;;;;;;;4.00;1.90;;;36.60;57.30;;;;;;4989755;28;20214;-71
2022/07/18 09:33:13;;;;;;;1.90;1.50;;;36.40;58.00;;;;;;4987115;28;20204;-74
2022/07/18 09:35:46;;;;;;;2.50;1.70;;;36.20;58.40;;;;;;4990664;28;20178;-73
2022/07/18 09:38:15;;;;;;;1.70;1.57;;;36.80;57.00;;;;;;4989223;28;20186;-73
2022/07/18 09:40:51;;;;;;;2.70;1.43;;;37.10;55.20;;;;;;4989731;28;20452;-73
2022/07/18 09:43:20;;;;;;;2.03;1.40;;;37.40;55.20;;;;;;4990404;28;20458;-72
2022/07/18 09:45:49;;;;;;;3.03;1.67;;;37.10;55.10;;;;;;4990261;28;20569;-73
2022/07/18 09:48:18;;;;;;;3.40;1.83;;;36.70;53.90;;;;;;4990384;28;20897;-73
2022/07/18 09:50:52;;;;;;;1.67;1.50;;;36.40;55.30;;;;;;4990149;28;20461;-74
2022/07/18 09:53:26;;;;;;;5.37;1.70;;;36.90;54.40;;;;;;4989487;28;20417;-74
2022/07/18 09:55:57;;;;;;;2.70;2.10;;;36.80;54.10;;;;;;4991031;28;20418;-73
2022/07/18 09:58:28;;;;;;;5.73;1.67;;;37.00;55.10;;;;;;4990443;28;20438;-74
2022/07/18 10:00:55;;;;;;;4.67;1.60;;;36.50;53.90;;;;;;4990186;28;20498;-74
2022/07/18 10:03:23;;;;;;;8.23;1.83;;;37.10;55.00;;;;;;4991056;28;20536;-73
2022/07/18 10:05:50;;;;;;;1.60;1.43;;;36.90;52.50;;;;;;4992412;28;20417;-73
2022/07/18 10:08:23;;;;;;;3.33;1.60;;;36.30;53.10;;;;;;4996866;28;20513;-73
2022/07/18 10:10:50;;;;;;;3.30;1.77;;;36.90;52.80;;;;;;4972574;28;20993;-73
2022/07/18 10:13:17;;;;;;;2.73;1.83;;;37.30;53.70;;;;;;4989585;28;20463;-73
2022/07/18 10:15:45;;;;;;;1.73;1.63;;;37.70;52.90;;;;;;4990863;28;20410;-73
2022/07/18 10:18:15;;;;;;;1.60;1.50;;;38.00;53.10;;;;;;4989943;28;20458;-73
2022/07/18 10:21:02;;;;;;;1.20;1.10;;;38.30;51.80;;;;;;4989928;28;20953;-72
2022/07/18 10:23:27;;;;;;;4.00;1.67;;;37.80;50.70;;;;;;4989826;28;20414;-71
2022/07/18 10:26:13;;;;;;;1.70;1.60;;;37.30;51.50;;;;;;4990529;28;20426;-74
2022/07/18 10:29:00;;;;;;;1.50;1.40;;;36.80;50.40;;;;;;4990461;28;20191;-73
2022/07/18 10:31:39;;;;;;;1.90;1.13;;;36.60;49.90;;;;;;4988802;28;21199;-73
2022/07/18 10:34:08;;;;;;;2.07;1.40;;;37.10;50.30;;;;;;4990594;28;20416;-73
2022/07/18 10:36:36;;;;;;;1.73;1.43;;;37.10;50.50;;;;;;4990375;28;20421;-73
2022/07/18 10:39:08;;;;;;;2.00;1.73;;;37.00;51.20;;;;;;4989819;28;20429;-74
2022/07/18 10:41:39;;;;;;;4.80;1.57;;;36.50;50.10;;;;;;4989251;28;20449;-74
2022/07/18 10:44:35;;;;;;;1.83;1.53;;;36.40;50.90;;;;;;4989752;28;20449;-73
2022/07/18 10:47:04;;;;;;;2.30;1.33;;;37.00;51.20;;;;;;4977400;28;20430;-73
2022/07/18 10:49:48;;;;;;;2.20;1.70;;;37.50;51.20;;;;;;4989664;28;20454;-73
2022/07/18 10:52:33;;;;;;;4.87;1.67;;;37.50;49.80;;;;;;4988984;28;20465;-71
2022/07/18 10:55:17;;;;;;;10.43;1.83;;;37.60;50.70;;;;;;4990199;28;20840;-74
2022/07/18 10:58:05;;;;;;;2.50;1.77;;;37.60;50.90;;;;;;4989399;28;20414;-73
2022/07/18 11:00:39;;;;;;;1.83;1.73;;;37.80;50.60;;;;;;4989994;28;20433;-73
2022/07/18 11:03:10;;;;;;;1.83;1.73;;;37.00;50.10;;;;;;4989806;28;20407;-73
2022/07/18 11:05:44;;;;;;;1.97;1.70;;;36.90;50.30;;;;;;4989978;28;20779;-73
2022/07/18 11:08:13;;;;;;;6.93;2.07;;;37.00;49.80;;;;;;4992673;28;20437;-74
2022/07/18 11:10:41;;;;;;;1.37;1.27;;;37.10;49.90;;;;;;4992666;28;20548;-70
2022/07/18 11:13:28;;;;;;;1.17;1.17;;;36.90;49.40;;;;;;4993233;28;20450;-70
2022/07/18 11:15:59;;;;;;;1.10;1.10;;;36.50;49.60;;;;;;4993585;28;20442;-73
2022/07/18 11:18:25;;;;;;;2.30;1.57;;;36.50;50.70;;;;;;4992576;28;20415;-73
2022/07/18 11:20:51;;;;;;;1.30;1.20;;;36.20;49.30;;;;;;4991385;28;20509;-73
2022/07/18 11:23:25;;;;;;;2.03;1.60;;;35.90;49.80;;;;;;4992506;28;20517;-72
2022/07/18 11:25:56;;;;;;;1.40;1.30;;;35.70;51.10;;;;;;4992768;28;20175;-73
2022/07/18 11:28:24;;;;;;;1.40;1.33;;;35.70;49.60;;;;;;4992810;28;20430;-74
2022/07/18 11:31:07;;;;;;;2.60;1.37;;;36.10;49.10;;;;;;4992593;28;20455;-73
2022/07/18 11:33:41;;;;;;;1.70;1.60;;;36.30;50.30;;;;;;4992583;28;20430;-74
2022/07/18 11:36:12;;;;;;;4.30;1.33;;;36.20;49.00;;;;;;4993050;28;20926;-72
2022/07/18 11:38:53;;;;;;;3.53;1.53;;;35.80;49.50;;;;;;4993212;28;20419;-73
2022/07/18 11:41:20;;;;;;;1.00;1.00;;;35.70;49.30;;;;;;4992300;28;20470;-73
2022/07/18 11:43:47;;;;;;;2.50;1.10;;;35.60;48.80;;;;;;4992315;28;20422;-73
2022/07/18 11:46:16;;;;;;;1.33;1.10;;;35.20;49.10;;;;;;4992986;28;21105;-73
2022/07/18 11:48:46;;;;;;;0.90;0.90;;;35.40;48.70;;;;;;4993398;28;20493;-73
2022/07/18 11:51:14;;;;;;;1.83;1.40;;;35.30;48.90;;;;;;4991634;28;20474;-73
2022/07/18 11:53:48;;;;;;;7.40;1.40;;;35.30;48.30;;;;;;4992860;28;20434;-73
2022/07/18 11:56:15;;;;;;;2.30;1.13;;;35.40;48.50;;;;;;4992674;28;20957;-73
2022/07/18 11:58:43;;;;;;;1.67;1.20;;;35.00;48.70;;;;;;4993289;28;20480;-73
2022/07/18 12:01:09;;;;;;;1.43;1.33;;;34.90;48.60;;;;;;4992184;28;20791;-73
2022/07/18 12:03:36;;;;;;;1.50;1.40;;;34.90;48.30;;;;;;4992551;28;20434;-73
2022/07/18 12:06:13;;;;;;;0.87;0.87;;;34.80;48.80;;;;;;4992195;28;20602;-72
2022/07/18 12:08:46;;;;;;;1.40;1.30;;;34.20;48.70;;;;;;4992959;28;20430;-73
2022/07/18 12:11:14;;;;;;;2.40;1.20;;;34.10;48.90;;;;;;4991743;28;20461;-73
2022/07/18 12:13:49;;;;;;;2.87;1.20;;;34.20;50.20;;;;;;4989934;28;20438;-73
2022/07/18 12:16:57;;;;;;;1.23;1.13;;;34.00;47.60;;;;;;4991839;28;20413;-73
2022/07/18 12:19:39;;;;;;;0.87;0.87;;;34.00;49.20;;;;;;4931105;29;20580;-73
2022/07/18 12:22:08;;;;;;;1.43;1.33;;;34.00;46.60;;;;;;4988056;28;20438;-73
2022/07/18 12:24:35;;;;;;;1.37;1.27;;;34.00;48.10;;;;;;4992343;28;20814;-71
2022/07/18 12:27:28;;;;;;;1.33;1.23;;;33.80;48.70;;;;;;4992167;28;20465;-70
2022/07/18 12:29:58;;;;;;;1.00;1.00;;;33.70;49.00;;;;;;4992098;28;20415;-72
2022/07/18 12:32:25;;;;;;;1.77;1.23;;;33.60;48.50;;;;;;4990475;28;20553;-73
2022/07/18 12:35:03;;;;;;;1.20;1.10;;;33.40;48.70;;;;;;4991749;28;20410;-72
2022/07/18 12:37:32;;;;;;;2.27;1.30;;;33.10;49.50;;;;;;4991836;28;20429;-72
2022/07/18 12:39:59;;;;;;;1.37;1.10;;;33.00;49.60;;;;;;4991941;28;20415;-72
2022/07/18 12:42:36;;;;;;;1.10;1.00;;;33.00;49.40;;;;;;4990628;28;21021;-73
2022/07/18 12:45:02;;;;;;;1.13;1.07;;;33.00;49.30;;;;;;4991736;28;20419;-71
2022/07/18 12:47:28;;;;;;;1.43;1.20;;;32.90;49.70;;;;;;4991197;28;20406;-72
2022/07/18 12:49:53;;;;;;;1.60;1.50;;;32.80;50.00;;;;;;4991915;28;20415;-73
2022/07/18 12:52:19;;;;;;;1.20;1.10;;;33.00;50.10;;;;;;4990325;28;20222;-73
2022/07/18 12:54:46;;;;;;;2.50;1.10;;;32.90;49.60;;;;;;4992059;28;20176;-72
2022/07/18 12:57:12;;;;;;;2.30;2.10;;;32.80;49.80;;;;;;4990946;28;20183;-73
2022/07/18 12:59:38;;;;;;;0.90;0.90;;;32.90;49.60;;;;;;4990917;28;20461;-73
2022/07/18 13:02:04;;;;;;;3.37;1.23;;;33.00;51.20;;;;;;4990400;28;20571;-73
2022/07/18 13:04:29;;;;;;;1.60;1.00;;;33.20;49.70;;;;;;4973757;28;20207;-70
2022/07/18 13:06:55;;;;;;;1.83;1.40;;;33.40;49.80;;;;;;4991221;28;20477;-73
2022/07/18 13:09:21;;;;;;;2.80;1.10;;;33.40;49.40;;;;;;4990617;28;20197;-73
2022/07/18 13:11:47;;;;;;;1.70;1.17;;;33.50;51.40;;;;;;4990386;28;20211;-70
2022/07/18 13:14:17;;;;;;;1.83;1.40;;;33.60;50.80;;;;;;4990809;28;20430;-73
2022/07/18 13:16:47;;;;;;;1.10;1.10;;;33.50;50.50;;;;;;4991325;28;20286;-73
2022/07/18 13:19:13;;;;;;;1.87;1.10;;;33.60;50.20;;;;;;4991038;28;20816;-72
2022/07/18 13:21:39;;;;;;;1.50;1.40;;;33.40;49.20;;;;;;4995934;28;20452;-72
2022/07/18 13:24:05;;;;;;;2.60;1.60;;;33.20;49.30;;;;;;4977215;28;20889;-72
2022/07/18 13:26:30;;;;;;;7.17;1.40;;;33.10;51.10;;;;;;4993963;28;20187;-72
2022/07/18 13:28:56;;;;;;;2.73;1.40;;;33.10;50.10;;;;;;4990687;28;20195;-73
2022/07/18 13:31:21;;;;;;;1.10;1.10;;;33.00;50.60;;;;;;4989970;28;20211;-73
2022/07/18 13:33:47;;;;;;;1.73;1.53;;;33.00;50.40;;;;;;4990806;28;20182;-70
2022/07/18 13:36:13;;;;;;;1.93;1.40;;;33.10;50.50;;;;;;4990510;28;20210;-72
2022/07/18 13:38:39;;;;;;;1.30;1.20;;;33.20;52.00;;;;;;4991140;28;20655;-72
2022/07/18 13:41:04;;;;;;;1.90;1.73;;;33.20;52.20;;;;;;4990180;28;20430;-72
2022/07/18 13:43:30;;;;;;;4.80;1.27;;;33.30;52.10;;;;;;4990082;28;20182;-71
2022/07/18 13:45:55;;;;;;;1.77;1.53;;;33.40;52.50;;;;;;4990470;28;20172;-73
2022/07/18 13:48:21;;;;;;;2.03;1.17;;;33.40;51.60;;;;;;4990653;28;20197;-73
2022/07/18 13:50:46;;;;;;;1.53;1.43;;;33.50;52.10;;;;;;4989907;28;20577;-72
2022/07/18 13:53:12;;;;;;;2.73;1.40;;;33.60;51.00;;;;;;4988522;28;20202;-73
2022/07/18 13:55:37;;;;;;;7.60;1.83;;;33.60;51.90;;;;;;4989774;28;20175;-73
2022/07/18 13:58:03;;;;;;;1.70;1.60;;;33.40;51.50;;;;;;4990621;28;20252;-73
2022/07/18 14:00:28;;;;;;;6.33;1.80;;;33.40;51.70;;;;;;4990227;28;20234;-72
2022/07/18 14:02:54;;;;;;;2.07;1.97;;;33.40;51.60;;;;;;4987887;28;20234;-71
2022/07/18 14:05:20;;;;;;;2.30;1.50;;;33.40;52.80;;;;;;4988573;28;20179;-73
2022/07/18 14:07:45;;;;;;;2.30;1.80;;;33.40;51.70;;;;;;4989085;28;20171;-73
2022/07/18 14:10:12;;;;;;;1.70;1.53;;;33.30;52.00;;;;;;4988755;28;20377;-73
2022/07/18 14:12:38;;;;;;;1.53;1.53;;;33.10;52.50;;;;;;4987494;28;20241;-73
2022/07/18 14:15:04;;;;;;;4.13;1.63;;;33.10;52.30;;;;;;4989195;28;20852;-72
2022/07/18 14:17:30;;;;;;;4.47;1.63;;;33.10;52.90;;;;;;4990731;28;20270;-72
2022/07/18 14:19:56;;;;;;;1.43;1.33;;;32.80;52.40;;;;;;4990778;28;20490;-73